首页
METAR-TAF:

METAR-TAF

机场 :

Cherry Capital Airport

特拉弗斯城, 密歇根州, 美国

纬度: 44-44-12N, 经度: 085-34-12W, 海拔: 190米

当前天气观测

该预报发布于21分钟前的12:53 UTC
风速5节,风向西转西南
温度 2°C
湿度 75%
气压 1016 hPa
能見度: 16.1公里
阴天层高于2200英尺

METAR: KTVC 031253Z 25005KT 10SM OVC022 02/M02 A2999 RMK AO2 SLP162 T00221022

时间: 08:14 (13:14 UTC)

预报

该预报发布于1小时和54分钟前的11:20 UTC
预报有效从03日的 12点(UTC)到 04日的 12点(UTC)
风速9节,风向西转西北
能見度: 10公里
阴天层高于2500英尺
从 03日的 1400点(UTC)
风速8节,风向西
能見度: 10公里
阴天层高于2500英尺
从 03日的 2000点(UTC)
风速12节,风向西转西南,有时为22节阵风
能見度: 10公里
阴天层高于2000英尺
从 04日的 0100点(UTC)
风速11节,风向西转西南,有时为19节阵风
能見度: 10公里
多云层高于2700英尺
从 04日的 0300点(UTC)
风速11节,风向西转西南
能見度: 10公里
多云层高于2000英尺
从 04日的 0800点(UTC)
风速7节,风向西转西南
能見度: 10公里
多云层高于1500英尺

TAF: KTVC 031120Z 0312/0412 29009KT P6SM OVC025 FM031400 26008KT P6SM OVC025 FM032000 24012G22KT P6SM OVC020 FM040100 25011G19KT P6SM BKN027 FM040300 25011KT P6SM BKN020 FM040800 25007KT P6SM BKN015

超过4000个机场的气象观测和天气预报(METAR&TAF报告)。

可查询的气象台以黄色和红色小点在地图上表示。

将鼠标移到小点上方,可查看气象台名称。

然后点击查看天气观测和预报。

如需切换地图:点击带黑十字的绿色按钮放大地图;点击带横线的绿色按钮缩小地图;或者点击绿色箭头查看邻近地区的地图。


METAR-TAF: